Easley, Missouri
Current Conditions -  °F | °C
As of 4:54 PM on Sunday 21 Dec 2014 (Local Time) from KCOU Reporting Station
Overcast Overcast  
Wind Chill: 35°   Ceiling: 1500
Heat Index: 42°   Visibility: 10mi
Dew Point: 37°   Wind: 15mph
Humidity: 82%   Direction: 150°SSE
Pressure: 29.93"   Gusts: NA
Location:  38.895°N, 92.3958°W
Report Text: KCOU 212254Z 15013KT 10SM OVC015 06/03 A2993 RMK AO2 SLP140 T00560028
Loading
Personal Weather Stations






























Interactive Weather Map New forecast layout! Learn more

10-Day Weather Forecast

Advertisements
Track Severe Weather on mobile